Time;durP1;ratioP1;P1;durP2;ratioP2;P2;SDS_P1;SDS_P2;PMS_P1;PMS_P2;Temp;Humidity;BMP_temperature;BMP_pressure;BME280_temperature;BME280_humidity;BME280_pressure;Samples;Min_cycle;Max_cycle;Signal;HPM_P1;HPM_P2
2022/05/31 00:00:34;;;;;;;3.28;2.78;;;;;16.80;101264.00;;;;5065079;28;20195;-79
2022/05/31 00:03:03;;;;;;;3.58;2.60;;;;;16.80;101266.00;;;;5048215;28;20199;-79
2022/05/31 00:05:32;;;;;;;3.38;2.63;;;;;16.70;101265.00;;;;5061023;28;20719;-80
2022/05/31 00:08:00;;;;;;;3.38;2.20;;;;;16.70;101255.00;;;;5065973;28;20617;-80
2022/05/31 00:10:28;;;;;;;3.17;2.67;;;;;16.70;101252.00;;;;5053995;28;20274;-79
2022/05/31 00:12:55;;;;;;;3.40;2.30;;;;;16.70;101255.00;;;;5059069;28;20595;-80
2022/05/31 00:15:23;;;;;;;4.03;2.13;;;;;16.70;101251.00;;;;5058189;28;20195;-79
2022/05/31 00:17:51;;;;;;;3.95;2.22;;;;;16.70;101252.00;;;;5053919;28;20270;-80
2022/05/31 00:20:19;;;;;;;2.58;2.28;;;;;16.60;101248.00;;;;5055276;28;20190;-80
2022/05/31 00:22:48;;;;;;;3.22;2.17;;;;;16.60;101252.00;;;;5064493;28;20557;-80
2022/05/31 00:25:16;;;;;;;2.03;1.67;;;;;16.60;101249.00;;;;5065247;28;20838;-80
2022/05/31 00:27:44;;;;;;;3.53;1.85;;;;;16.60;101256.00;;;;5065074;28;20202;-79
2022/05/31 00:30:13;;;;;;;1.55;1.45;;;;;16.60;101259.00;;;;5062498;28;20188;-79
2022/05/31 00:32:45;;;;;;;2.47;1.92;;;;;16.60;101258.00;;;;5064079;28;20249;-79
2022/05/31 00:35:16;;;;;;;2.42;2.10;;;;;16.60;101252.00;;;;5053352;28;20594;-79
2022/05/31 00:37:43;;;;;;;2.05;1.85;;;;;16.60;101252.00;;;;5052459;28;20641;-79
2022/05/31 00:40:14;;;;;;;2.40;2.10;;;;;16.60;101254.00;;;;5065409;28;20218;-80
2022/05/31 00:42:53;;;;;;;2.70;1.80;;;;;16.50;101251.00;;;;5068038;28;20226;-79
2022/05/31 00:45:20;;;;;;;2.03;1.83;;;;;16.60;101251.00;;;;5061467;28;20546;-80
2022/05/31 00:47:48;;;;;;;2.00;1.80;;;;;16.60;101247.00;;;;5058056;28;20207;-79
2022/05/31 00:50:23;;;;;;;2.30;1.60;;;;;16.60;101259.00;;;;5055670;28;20242;-79
2022/05/31 00:52:54;;;;;;;2.75;1.63;;;;;16.60;101256.00;;;;5059037;28;20199;-79
2022/05/31 00:55:28;;;;;;;5.78;1.98;;;;;16.60;101252.00;;;;5067080;28;20398;-79
2022/05/31 00:58:01;;;;;;;2.55;2.08;;;;;16.60;101250.00;;;;5067126;28;20241;-79
2022/05/31 01:00:29;;;;;;;3.95;2.50;;;;;16.60;101247.00;;;;5062221;28;20202;-79
2022/05/31 01:02:57;;;;;;;2.20;1.88;;;;;16.60;101243.00;;;;5051630;28;20666;-79
2022/05/31 01:05:26;;;;;;;3.83;1.77;;;;;16.60;101248.00;;;;5057433;28;20215;-79
2022/05/31 01:07:54;;;;;;;2.17;1.98;;;;;16.60;101249.00;;;;5059593;28;20197;-79
2022/05/31 01:10:23;;;;;;;3.00;2.17;;;;;16.60;101244.00;;;;5059106;28;20199;-79
2022/05/31 01:12:52;;;;;;;2.40;2.03;;;;;16.60;101245.00;;;;5067833;28;20222;-79
2022/05/31 01:15:20;;;;;;;2.28;1.95;;;;;16.60;101241.00;;;;5066572;28;20191;-79
2022/05/31 01:17:48;;;;;;;2.95;1.90;;;;;16.60;101237.00;;;;5057948;28;20615;-79
2022/05/31 01:20:19;;;;;;;2.72;1.90;;;;;16.60;101239.00;;;;5055438;28;20728;-79
2022/05/31 01:22:49;;;;;;;2.08;1.88;;;;;16.60;101232.00;;;;5056320;28;20203;-79
2022/05/31 01:25:33;;;;;;;3.22;1.63;;;;;16.60;101237.00;;;;5061760;28;20595;-79
2022/05/31 01:28:11;;;;;;;1.85;1.52;;;;;16.60;101239.00;;;;5055473;28;20206;-79
2022/05/31 01:30:45;;;;;;;2.30;2.08;;;;;16.60;101246.00;;;;5064342;28;20887;-79
2022/05/31 01:33:16;;;;;;;2.90;1.98;;;;;16.60;101244.00;;;;5059590;28;20199;-79
2022/05/31 01:35:45;;;;;;;2.70;1.60;;;;;16.60;101244.00;;;;5067564;28;20580;-79
2022/05/31 01:38:16;;;;;;;2.83;1.95;;;;;16.60;101238.00;;;;5062938;28;20191;-80
2022/05/31 01:40:51;;;;;;;2.90;1.83;;;;;16.60;101241.00;;;;5063629;28;20199;-79
2022/05/31 01:43:18;;;;;;;2.35;1.65;;;;;16.70;101241.00;;;;5059469;28;20223;-80
2022/05/31 01:45:55;;;;;;;1.85;1.60;;;;;16.60;101232.00;;;;5050016;28;20624;-79
2022/05/31 01:48:23;;;;;;;3.65;1.90;;;;;16.60;101233.00;;;;5064311;28;20198;-79
2022/05/31 01:50:52;;;;;;;1.77;1.40;;;;;16.60;101228.00;;;;5059743;28;20195;-79
2022/05/31 01:53:19;;;;;;;2.20;1.73;;;;;16.70;101230.00;;;;5067596;28;20199;-80
2022/05/31 01:55:48;;;;;;;1.75;1.60;;;;;16.60;101226.00;;;;5065470;28;20191;-79
2022/05/31 01:58:20;;;;;;;2.97;1.80;;;;;16.60;101229.00;;;;5067570;28;20221;-79
2022/05/31 02:00:47;;;;;;;1.98;1.75;;;;;16.60;101228.00;;;;5059394;28;20196;-79
2022/05/31 02:03:18;;;;;;;2.80;1.42;;;;;16.60;101230.00;;;;5057898;28;20192;-79
2022/05/31 02:05:46;;;;;;;2.17;1.58;;;;;16.60;101225.00;;;;5062819;28;20219;-79
2022/05/31 02:08:16;;;;;;;2.28;1.60;;;;;16.60;101219.00;;;;5061881;28;20203;-79
2022/05/31 02:10:45;;;;;;;2.72;1.67;;;;;16.60;101224.00;;;;5061128;28;20202;-79
2022/05/31 02:13:12;;;;;;;2.08;1.67;;;;;16.60;101226.00;;;;5068812;28;20286;-79
2022/05/31 02:15:40;;;;;;;2.50;1.77;;;;;16.60;101225.00;;;;5069522;28;20199;-79
2022/05/31 02:18:08;;;;;;;2.10;1.90;;;;;16.60;101223.00;;;;5061820;28;20203;-79
2022/05/31 02:20:35;;;;;;;1.85;1.75;;;;;16.60;101224.00;;;;5059038;28;20223;-80
2022/05/31 02:23:02;;;;;;;3.70;1.75;;;;;16.60;101222.00;;;;5063118;28;20199;-80
2022/05/31 02:25:32;;;;;;;2.30;1.92;;;;;16.60;101221.00;;;;5072513;28;20451;-80
2022/05/31 02:27:59;;;;;;;2.20;1.83;;;;;16.60;101219.00;;;;5070836;28;20199;-80
2022/05/31 02:30:27;;;;;;;1.92;1.75;;;;;16.60;101217.00;;;;5062817;28;20196;-80
2022/05/31 02:32:54;;;;;;;4.35;2.25;;;;;16.60;101219.00;;;;5060747;28;20195;-80
2022/05/31 02:35:21;;;;;;;3.08;1.80;;;;;16.50;101221.00;;;;5070667;28;20248;-81
2022/05/31 02:37:48;;;;;;;2.90;2.00;;;;;16.50;101214.00;;;;5059016;28;20577;-80
2022/05/31 02:40:16;;;;;;;2.78;1.88;;;;;16.50;101216.00;;;;5065076;28;20601;-80
2022/05/31 02:42:44;;;;;;;2.05;1.65;;;;;16.50;101206.00;;;;5065270;28;20246;-80
2022/05/31 02:45:12;;;;;;;2.17;1.88;;;;;16.50;101206.00;;;;5054298;28;20207;-80
2022/05/31 02:47:40;;;;;;;3.78;2.25;;;;;16.50;101212.00;;;;5056657;28;20196;-80
2022/05/31 02:50:08;;;;;;;2.00;1.80;;;;;16.50;101210.00;;;;5059994;28;20213;-80
2022/05/31 02:52:36;;;;;;;2.42;2.20;;;;;16.50;101216.00;;;;5051792;28;20215;-80
2022/05/31 02:55:03;;;;;;;3.60;2.25;;;;;16.40;101212.00;;;;5052002;28;20203;-77
2022/05/31 02:57:31;;;;;;;2.08;1.67;;;;;16.40;101213.00;;;;5062181;28;20199;-78
2022/05/31 02:59:59;;;;;;;2.65;1.63;;;;;16.40;101208.00;;;;5057010;28;20717;-78
2022/05/31 03:02:27;;;;;;;1.58;1.48;;;;;16.40;101207.00;;;;5060281;28;20202;-79
2022/05/31 03:04:54;;;;;;;2.80;1.88;;;;;16.40;101207.00;;;;5057553;28;20219;-78
2022/05/31 03:07:21;;;;;;;2.80;1.80;;;;;16.40;101199.00;;;;5058814;28;20200;-79
2022/05/31 03:09:48;;;;;;;2.08;1.77;;;;;16.40;101198.00;;;;5058556;28;20623;-78
2022/05/31 03:12:18;;;;;;;2.60;1.77;;;;;16.30;101200.00;;;;5056197;28;20187;-78
2022/05/31 03:14:50;;;;;;;2.15;1.75;;;;;16.30;101201.00;;;;5063519;28;20210;-79
2022/05/31 03:17:25;;;;;;;2.33;1.95;;;;;16.30;101205.00;;;;5082467;28;20204;-79
2022/05/31 03:19:56;;;;;;;2.47;1.98;;;;;16.30;101194.00;;;;5058098;28;20313;-79
2022/05/31 03:22:27;;;;;;;5.13;2.05;;;;;16.30;101192.00;;;;5061462;28;20196;-78
2022/05/31 03:24:56;;;;;;;2.28;1.98;;;;;16.30;101196.00;;;;5058635;28;20206;-79
2022/05/31 03:27:24;;;;;;;2.53;1.90;;;;;16.30;101188.00;;;;5069062;28;20827;-78
2022/05/31 03:29:53;;;;;;;2.92;2.08;;;;;16.30;101200.00;;;;5060028;28;20195;-79
2022/05/31 03:32:22;;;;;;;2.28;1.80;;;;;16.30;101198.00;;;;5059823;28;20252;-78
2022/05/31 03:34:50;;;;;;;2.28;2.08;;;;;16.30;101197.00;;;;5059236;28;20199;-79
2022/05/31 03:37:18;;;;;;;2.75;2.08;;;;;16.30;101196.00;;;;5060792;28;20199;-79
2022/05/31 03:39:45;;;;;;;3.38;2.28;;;;;16.30;101194.00;;;;5056786;28;20219;-79
2022/05/31 03:42:12;;;;;;;2.97;2.03;;;;;16.30;101190.00;;;;5062940;28;20238;-79
2022/05/31 03:44:40;;;;;;;2.80;2.10;;;;;16.30;101196.00;;;;5062443;28;20213;-79
2022/05/31 03:47:08;;;;;;;2.45;2.08;;;;;16.30;101192.00;;;;5068617;28;20209;-78
2022/05/31 03:49:36;;;;;;;3.15;2.05;;;;;16.30;101194.00;;;;5059784;28;20874;-79
2022/05/31 03:52:04;;;;;;;2.58;2.08;;;;;16.30;101191.00;;;;5057822;28;20199;-78
2022/05/31 03:54:35;;;;;;;2.55;2.00;;;;;16.30;101191.00;;;;5052040;28;21001;-79
2022/05/31 03:57:03;;;;;;;2.35;2.15;;;;;16.30;101194.00;;;;5061172;28;20195;-79
2022/05/31 03:59:30;;;;;;;3.88;2.17;;;;;16.30;101194.00;;;;5057932;28;20223;-79
2022/05/31 04:01:57;;;;;;;3.05;2.45;;;;;16.30;101193.00;;;;5057997;28;20198;-78
2022/05/31 04:04:27;;;;;;;3.97;2.80;;;;;16.30;101196.00;;;;5065513;28;21096;-78
2022/05/31 04:06:56;;;;;;;3.35;2.53;;;;;16.30;101198.00;;;;5057159;28;20218;-79
2022/05/31 04:09:23;;;;;;;2.92;2.03;;;;;16.30;101198.00;;;;5053028;28;20195;-79
2022/05/31 04:11:51;;;;;;;2.35;2.00;;;;;16.30;101198.00;;;;5054424;28;20196;-78
2022/05/31 04:14:19;;;;;;;3.28;2.75;;;;;16.30;101197.00;;;;5057206;28;20198;-79
2022/05/31 04:16:46;;;;;;;2.22;2.03;;;;;16.30;101192.00;;;;5064348;28;20669;-78
2022/05/31 04:19:14;;;;;;;2.65;2.13;;;;;16.30;101191.00;;;;5054689;28;20207;-78
2022/05/31 04:21:41;;;;;;;3.13;2.25;;;;;16.40;101187.00;;;;5059920;28;20260;-78
2022/05/31 04:24:12;;;;;;;2.80;2.10;;;;;16.40;101192.00;;;;5059951;28;20611;-79
2022/05/31 04:26:41;;;;;;;2.63;2.15;;;;;16.40;101185.00;;;;5054414;28;20241;-79
2022/05/31 04:29:09;;;;;;;3.25;2.97;;;;;16.40;101193.00;;;;5059640;28;20219;-78
2022/05/31 04:31:36;;;;;;;2.50;2.05;;;;;16.50;101194.00;;;;5059642;28;20214;-79
2022/05/31 04:34:07;;;;;;;3.70;2.15;;;;;16.50;101193.00;;;;5063887;28;20270;-79
2022/05/31 04:36:35;;;;;;;3.83;2.10;;;;;16.50;101188.00;;;;5061955;28;20195;-79
2022/05/31 04:39:03;;;;;;;3.70;1.95;;;;;16.60;101189.00;;;;5059997;28;20190;-79
2022/05/31 04:41:32;;;;;;;2.30;2.10;;;;;16.60;101186.00;;;;5067523;28;20310;-79
2022/05/31 04:44:01;;;;;;;2.38;1.83;;;;;16.60;101183.00;;;;5055203;28;20653;-78
2022/05/31 04:46:31;;;;;;;2.53;2.10;;;;;16.60;101179.00;;;;5065510;28;20199;-78
2022/05/31 04:49:02;;;;;;;3.65;2.58;;;;;16.70;101179.00;;;;5054044;28;20208;-80
2022/05/31 04:51:32;;;;;;;4.25;2.28;;;;;16.70;101186.00;;;;5064864;28;20195;-80
2022/05/31 04:54:00;;;;;;;2.58;2.22;;;;;16.80;101184.00;;;;5068839;28;20195;-80
2022/05/31 04:56:27;;;;;;;3.63;2.50;;;;;16.90;101191.00;;;;5068329;28;20198;-81
2022/05/31 04:58:56;;;;;;;3.60;2.67;;;;;16.90;101191.00;;;;5064845;28;20195;-80
2022/05/31 05:01:25;;;;;;;3.47;2.38;;;;;17.00;101184.00;;;;5061839;28;20248;-81
2022/05/31 05:03:55;;;;;;;4.15;2.40;;;;;17.00;101196.00;;;;5067196;28;20207;-80
2022/05/31 05:06:23;;;;;;;3.63;2.78;;;;;17.10;101186.00;;;;5050466;28;20219;-81
2022/05/31 05:08:51;;;;;;;4.03;3.17;;;;;17.20;101187.00;;;;5054223;28;20190;-80
2022/05/31 05:11:23;;;;;;;4.07;2.90;;;;;17.30;101191.00;;;;5068299;28;20285;-80
2022/05/31 05:13:51;;;;;;;7.07;2.95;;;;;17.40;101193.00;;;;5057980;28;20206;-81
2022/05/31 05:16:20;;;;;;;3.88;2.55;;;;;17.40;101188.00;;;;5058252;28;20203;-81
2022/05/31 05:18:47;;;;;;;4.60;2.70;;;;;17.50;101193.00;;;;5054838;28;20191;-81
2022/05/31 05:21:16;;;;;;;3.25;2.88;;;;;17.60;101184.00;;;;5070163;28;20234;-81
2022/05/31 05:23:44;;;;;;;3.60;2.60;;;;;17.70;101182.00;;;;5063602;28;20191;-81
2022/05/31 05:26:12;;;;;;;4.53;3.10;;;;;17.80;101177.00;;;;5055229;28;20206;-80
2022/05/31 05:31:32;;;;;;;6.88;3.05;;;;;17.90;101172.00;;;;5055315;28;20627;-80
2022/05/31 05:34:01;;;;;;;3.42;3.05;;;;;18.00;101174.00;;;;5064726;28;20190;-82
2022/05/31 05:36:29;;;;;;;3.75;2.88;;;;;18.10;101176.00;;;;5049700;28;20286;-81
2022/05/31 05:38:56;;;;;;;3.60;2.50;;;;;18.20;101174.00;;;;5048246;28;20204;-80
2022/05/31 05:41:25;;;;;;;3.35;2.75;;;;;18.30;101171.00;;;;5048773;28;20234;-81
2022/05/31 05:43:53;;;;;;;2.88;2.60;;;;;18.40;101173.00;;;;5055400;28;20210;-81
2022/05/31 05:46:23;;;;;;;4.95;3.20;;;;;18.40;101171.00;;;;5056857;28;20194;-80
2022/05/31 05:48:53;;;;;;;4.75;3.05;;;;;18.50;101176.00;;;;5057716;28;20199;-79
2022/05/31 05:51:22;;;;;;;3.67;3.10;;;;;18.60;101179.00;;;;5051730;28;20221;-80
2022/05/31 05:53:51;;;;;;;4.18;2.60;;;;;18.60;101177.00;;;;5056891;28;20581;-81
2022/05/31 05:56:19;;;;;;;4.60;3.60;;;;;18.70;101179.00;;;;5072266;28;20286;-79
2022/05/31 05:58:46;;;;;;;4.10;3.30;;;;;18.80;101180.00;;;;5065824;28;20198;-80
2022/05/31 06:01:19;;;;;;;4.57;3.15;;;;;18.90;101178.00;;;;5063605;28;20214;-80
2022/05/31 06:03:53;;;;;;;3.88;2.90;;;;;18.90;101176.00;;;;5071784;28;20227;-79
2022/05/31 06:06:22;;;;;;;3.90;3.47;;;;;19.00;101177.00;;;;5059484;28;20596;-80
2022/05/31 06:08:54;;;;;;;4.25;3.58;;;;;19.10;101178.00;;;;5065629;28;20264;-80
2022/05/31 06:11:26;;;;;;;3.95;3.50;;;;;19.20;101179.00;;;;5072060;28;20206;-81
2022/05/31 06:13:58;;;;;;;4.38;3.40;;;;;19.20;101176.00;;;;5068501;28;20673;-77
2022/05/31 06:16:29;;;;;;;4.47;3.25;;;;;19.30;101177.00;;;;5059098;28;20597;-78
2022/05/31 06:19:03;;;;;;;4.07;3.45;;;;;19.30;101175.00;;;;5050653;28;20207;-78
2022/05/31 06:21:30;;;;;;;5.80;3.60;;;;;19.40;101181.00;;;;5065606;28;20226;-78
2022/05/31 06:24:00;;;;;;;4.07;3.67;;;;;19.50;101175.00;;;;5056019;28;20230;-78
2022/05/31 06:26:28;;;;;;;5.10;3.53;;;;;19.50;101177.00;;;;5051518;28;20206;-79
2022/05/31 06:28:56;;;;;;;5.45;3.78;;;;;19.60;101178.00;;;;5052076;28;20229;-78
2022/05/31 06:31:23;;;;;;;4.95;3.60;;;;;19.70;101179.00;;;;5051504;28;20670;-78
2022/05/31 06:33:51;;;;;;;5.03;3.33;;;;;19.70;101183.00;;;;5050985;28;20223;-78
2022/05/31 06:36:19;;;;;;;4.20;3.58;;;;;19.80;101187.00;;;;5051125;28;20195;-77
2022/05/31 06:38:47;;;;;;;6.20;4.13;;;;;19.80;101176.00;;;;5067053;28;20187;-78
2022/05/31 06:41:14;;;;;;;8.27;3.70;;;;;19.90;101181.00;;;;5051656;28;20224;-78
2022/05/31 06:43:42;;;;;;;4.63;3.75;;;;;20.00;101186.00;;;;5063769;28;20241;-78
2022/05/31 06:46:11;;;;;;;4.82;3.70;;;;;20.10;101187.00;;;;5071464;28;20207;-78
2022/05/31 06:48:39;;;;;;;4.80;4.00;;;;;20.10;101188.00;;;;5068167;28;20260;-78
2022/05/31 06:51:07;;;;;;;5.95;3.70;;;;;20.20;101180.00;;;;5071236;28;20195;-77
2022/05/31 06:56:50;;;;;;;7.55;4.03;;;;;20.40;101187.00;;;;5006395;28;20254;-79
2022/05/31 06:59:18;;;;;;;4.20;3.65;;;;;20.50;101184.00;;;;5006775;28;20197;-79
2022/05/31 07:01:47;;;;;;;4.40;3.72;;;;;20.50;101180.00;;;;5039274;28;20233;-79
2022/05/31 07:04:15;;;;;;;5.55;4.00;;;;;20.60;101185.00;;;;5070670;28;20274;-78
2022/05/31 07:06:42;;;;;;;5.05;3.75;;;;;20.70;101175.00;;;;5065653;28;20215;-79
2022/05/31 07:09:12;;;;;;;5.32;3.85;;;;;20.70;101175.00;;;;5068801;28;20211;-79
2022/05/31 07:11:40;;;;;;;5.20;4.32;;;;;20.80;101174.00;;;;5063400;28;20584;-79
2022/05/31 07:14:07;;;;;;;7.30;4.65;;;;;20.90;101172.00;;;;5063509;28;20200;-79
2022/05/31 07:16:35;;;;;;;5.10;4.22;;;;;20.90;101177.00;;;;5064611;28;20264;-79
2022/05/31 07:19:05;;;;;;;5.13;4.55;;;;;21.00;101165.00;;;;5065189;28;20199;-80
2022/05/31 07:21:32;;;;;;;7.10;4.72;;;;;21.10;101168.00;;;;5065338;28;20224;-79
2022/05/31 07:23:59;;;;;;;5.03;3.92;;;;;21.20;101171.00;;;;5063380;28;20610;-80
2022/05/31 07:26:28;;;;;;;5.30;4.25;;;;;21.20;101166.00;;;;5071483;28;20206;-79
2022/05/31 07:28:56;;;;;;;4.72;3.65;;;;;21.30;101170.00;;;;5083869;28;20205;-79
2022/05/31 07:31:23;;;;;;;4.63;3.85;;;;;21.40;101166.00;;;;5063514;28;20187;-79
2022/05/31 07:33:50;;;;;;;6.35;4.38;;;;;21.50;101165.00;;;;5068441;28;20226;-80
2022/05/31 07:36:19;;;;;;;7.22;4.40;;;;;21.50;101169.00;;;;5058291;28;20207;-79
2022/05/31 07:38:47;;;;;;;4.65;4.10;;;;;21.50;101175.00;;;;5068283;28;20288;-80
2022/05/31 07:41:14;;;;;;;4.47;3.97;;;;;21.60;101172.00;;;;5061494;28;20229;-80
2022/05/31 07:43:42;;;;;;;7.72;4.20;;;;;21.60;101169.00;;;;5066726;28;20656;-79
2022/05/31 07:46:13;;;;;;;5.90;4.72;;;;;21.60;101170.00;;;;5069309;28;20252;-80
2022/05/31 07:48:40;;;;;;;5.95;4.10;;;;;21.60;101165.00;;;;5054108;28;20310;-79
2022/05/31 07:51:08;;;;;;;4.95;4.40;;;;;21.60;101164.00;;;;5068982;28;20202;-80
2022/05/31 07:53:36;;;;;;;5.40;4.00;;;;;21.70;101167.00;;;;5070955;28;20565;-80
2022/05/31 07:56:06;;;;;;;6.10;4.82;;;;;21.70;101170.00;;;;5063953;28;20202;-80
2022/05/31 07:58:34;;;;;;;5.00;4.18;;;;;21.80;101166.00;;;;5064887;28;20203;-79
2022/05/31 08:01:05;;;;;;;11.45;4.13;;;;;21.80;101167.00;;;;5058671;28;20227;-79
2022/05/31 08:03:33;;;;;;;6.40;4.15;;;;;21.90;101165.00;;;;5061739;28;20641;-79
2022/05/31 08:06:03;;;;;;;5.57;4.72;;;;;21.90;101167.00;;;;5057551;28;20393;-79
2022/05/31 08:08:31;;;;;;;6.05;4.65;;;;;21.90;101159.00;;;;5063545;28;20229;-79
2022/05/31 08:10:58;;;;;;;4.78;3.67;;;;;22.00;101161.00;;;;5067396;28;20198;-78
2022/05/31 08:13:25;;;;;;;9.65;4.38;;;;;22.10;101157.00;;;;5058176;28;20240;-78
2022/05/31 08:15:53;;;;;;;5.50;3.25;;;;;22.20;101153.00;;;;5061801;28;20208;-78
2022/05/31 08:18:21;;;;;;;4.93;3.85;;;;;22.30;101147.00;;;;5059231;28;20195;-78
2022/05/31 08:20:49;;;;;;;4.13;3.72;;;;;22.50;101157.00;;;;5066246;28;20226;-78
2022/05/31 08:26:39;;;;;;;3.65;2.90;;;;;22.80;101158.00;;;;5059455;28;20202;-79
2022/05/31 08:29:06;;;;;;;3.72;3.25;;;;;22.80;101151.00;;;;5057712;28;20204;-79
2022/05/31 08:31:37;;;;;;;4.38;3.05;;;;;23.00;101152.00;;;;5052575;28;20203;-78
2022/05/31 08:34:06;;;;;;;3.90;3.13;;;;;23.10;101151.00;;;;5055962;28;20203;-79
2022/05/31 08:36:35;;;;;;;3.30;2.72;;;;;23.10;101150.00;;;;5057155;28;20203;-79
2022/05/31 08:39:03;;;;;;;4.88;3.42;;;;;23.20;101153.00;;;;5065697;28;20669;-80
2022/05/31 08:41:32;;;;;;;5.03;3.40;;;;;23.30;101151.00;;;;5067770;28;20760;-79
2022/05/31 08:44:13;;;;;;;11.88;3.35;;;;;23.30;101143.00;;;;5062218;28;20204;-79
2022/05/31 08:47:00;;;;;;;4.88;2.92;;;;;23.40;101146.00;;;;5062558;28;20194;-79
2022/05/31 08:52:34;;;;;;;3.88;2.50;;;;;23.80;101156.00;;;;5062346;28;20214;-79
2022/05/31 08:57:54;;;;;;;4.78;3.05;;;;;24.00;101149.00;;;;5066985;28;20683;-80
2022/05/31 09:00:25;;;;;;;4.13;2.72;;;;;24.10;101150.00;;;;5065276;28;20198;-79
2022/05/31 09:02:58;;;;;;;3.42;2.78;;;;;24.20;101148.00;;;;5054201;28;20204;-79
2022/05/31 09:05:30;;;;;;;6.57;2.88;;;;;24.30;101147.00;;;;5055143;28;20708;-78
2022/05/31 09:08:05;;;;;;;5.03;3.20;;;;;24.30;101143.00;;;;5068621;28;20195;-78
2022/05/31 09:10:41;;;;;;;4.68;2.78;;;;;24.30;101150.00;;;;5068930;28;20198;-79
2022/05/31 09:13:16;;;;;;;2.97;2.53;;;;;24.20;101153.00;;;;5058365;28;20210;-78
2022/05/31 09:15:49;;;;;;;4.32;3.05;;;;;24.20;101150.00;;;;5054640;28;20191;-82
2022/05/31 09:18:22;;;;;;;5.88;2.72;;;;;24.20;101149.00;;;;5065251;28;20195;-80
2022/05/31 09:20:55;;;;;;;3.97;2.35;;;;;24.20;101147.00;;;;5062930;28;20722;-78
2022/05/31 09:23:24;;;;;;;3.83;2.58;;;;;24.30;101149.00;;;;5058198;28;20320;-78
2022/05/31 09:25:59;;;;;;;3.67;3.00;;;;;24.30;101149.00;;;;5067709;28;20198;-77
2022/05/31 09:28:36;;;;;;;5.75;3.20;;;;;24.30;101147.00;;;;5059821;28;20209;-77
2022/05/31 09:31:20;;;;;;;7.07;3.13;;;;;24.30;101144.00;;;;5055145;28;20230;-78
2022/05/31 09:33:57;;;;;;;5.03;2.70;;;;;24.30;101143.00;;;;5061082;28;20199;-77
2022/05/31 09:36:33;;;;;;;3.05;2.60;;;;;24.40;101142.00;;;;5064926;28;20205;-77
2022/05/31 09:39:20;;;;;;;3.72;3.03;;;;;24.50;101133.00;;;;5062659;28;21018;-77
2022/05/31 09:41:53;;;;;;;3.22;2.92;;;;;24.70;101138.00;;;;5059092;28;20235;-77
2022/05/31 09:44:25;;;;;;;3.63;2.83;;;;;24.80;101140.00;;;;5051526;28;20223;-77
2022/05/31 09:46:58;;;;;;;4.45;3.10;;;;;24.90;101133.00;;;;5052811;28;20579;-77
2022/05/31 09:49:32;;;;;;;2.42;2.15;;;;;25.00;101135.00;;;;5050263;28;20231;-78
2022/05/31 09:52:01;;;;;;;4.13;2.35;;;;;25.10;101144.00;;;;5060532;28;20198;-78
2022/05/31 09:57:21;;;;;;;3.08;2.28;;;;;25.30;101143.00;;;;5066726;28;20201;-79
2022/05/31 09:59:51;;;;;;;5.28;2.63;;;;;25.40;101144.00;;;;5067415;28;20209;-80
2022/05/31 10:02:27;;;;;;;2.97;2.13;;;;;25.50;101141.00;;;;5067167;28;20205;-80
2022/05/31 10:05:18;;;;;;;3.83;2.28;;;;;25.50;101134.00;;;;5064978;28;20226;-80
2022/05/31 10:07:50;;;;;;;3.60;2.67;;;;;25.70;101133.00;;;;5067192;28;20214;-78
2022/05/31 10:10:24;;;;;;;3.40;2.53;;;;;25.80;101130.00;;;;5069066;28;20199;-78
2022/05/31 10:12:54;;;;;;;3.35;2.35;;;;;25.90;101132.00;;;;5065975;28;20191;-78
2022/05/31 10:15:50;;;;;;;2.95;1.92;;;;;25.70;101136.00;;;;5059302;28;20681;-78
2022/05/31 10:18:27;;;;;;;1.70;1.27;;;;;25.70;101128.00;;;;5062763;28;20200;-78
2022/05/31 10:20:57;;;;;;;2.80;2.40;;;;;25.80;101130.00;;;;5058478;28;20206;-78
2022/05/31 10:23:33;;;;;;;3.88;2.38;;;;;25.60;101127.00;;;;5066243;28;20195;-78
2022/05/31 10:26:01;;;;;;;3.13;1.92;;;;;25.60;101127.00;;;;5057017;28;20191;-77
2022/05/31 10:28:32;;;;;;;3.50;1.95;;;;;25.50;101122.00;;;;5058052;28;21087;-78
2022/05/31 10:31:04;;;;;;;2.80;1.80;;;;;25.50;101128.00;;;;5062472;28;20554;-77
2022/05/31 10:33:34;;;;;;;3.00;1.60;;;;;25.60;101120.00;;;;5058633;28;20199;-78
2022/05/31 10:36:09;;;;;;;4.43;2.30;;;;;25.60;101113.00;;;;5058434;28;20207;-78
2022/05/31 10:38:43;;;;;;;3.17;1.77;;;;;25.80;101119.00;;;;5068716;28;20244;-81
2022/05/31 10:41:19;;;;;;;2.55;2.20;;;;;25.90;101117.00;;;;5066925;28;20202;-81
2022/05/31 10:43:51;;;;;;;3.72;2.03;;;;;26.10;101117.00;;;;5057380;28;20199;-79
2022/05/31 10:46:26;;;;;;;2.97;1.92;;;;;26.20;101106.00;;;;5065836;28;20253;-78
2022/05/31 10:48:57;;;;;;;4.65;2.55;;;;;26.30;101116.00;;;;5059650;28;20203;-79
2022/05/31 10:51:56;;;;;;;4.93;1.92;;;;;26.20;101118.00;;;;5072407;28;20198;-78
2022/05/31 10:54:39;;;;;;;2.10;1.70;;;;;26.30;101109.00;;;;5060827;28;20199;-81
2022/05/31 10:57:17;;;;;;;3.88;2.55;;;;;26.40;101125.00;;;;5060376;28;20196;-79
2022/05/31 10:59:50;;;;;;;3.72;2.58;;;;;26.40;101118.00;;;;5064037;28;20195;-79
2022/05/31 11:02:55;;;;;;;3.30;2.70;;;;;26.20;101116.00;;;;5067945;28;20223;-80
2022/05/31 11:05:30;;;;;;;3.58;2.55;;;;;26.20;101103.00;;;;5061736;28;20297;-79
2022/05/31 11:13:56;;;;;;;2.42;2.22;;;;;26.00;101114.00;;;;5065437;28;20687;-79
2022/05/31 11:16:38;;;;;;;2.03;1.77;;;;;25.90;101105.00;;;;5064353;28;20204;-79
2022/05/31 11:19:21;;;;;;;3.13;1.77;;;;;25.90;101110.00;;;;5058336;28;20199;-79
2022/05/31 11:22:10;;;;;;;2.88;2.58;;;;;25.90;101115.00;;;;5056370;28;20654;-80
2022/05/31 11:24:51;;;;;;;3.08;1.98;;;;;25.90;101115.00;;;;5050881;28;20198;-77
2022/05/31 11:27:31;;;;;;;3.05;2.20;;;;;25.90;101114.00;;;;5062743;28;20195;-78
2022/05/31 11:30:13;;;;;;;3.35;1.83;;;;;25.90;101119.00;;;;5051739;28;20738;-77
2022/05/31 11:33:04;;;;;;;3.08;2.38;;;;;25.90;101118.00;;;;5057558;28;20224;-78
2022/05/31 11:35:45;;;;;;;3.50;2.50;;;;;26.00;101116.00;;;;5057328;28;20199;-78
2022/05/31 11:38:21;;;;;;;2.53;1.85;;;;;26.00;101112.00;;;;5064054;28;20760;-80
2022/05/31 11:40:59;;;;;;;2.70;2.20;;;;;25.90;101117.00;;;;5050744;28;20668;-78
2022/05/31 11:44:08;;;;;;;2.50;1.80;;;;;25.80;101117.00;;;;5054684;28;20249;-79
2022/05/31 11:46:43;;;;;;;3.45;2.40;;;;;25.90;101112.00;;;;5044444;28;20207;-79
2022/05/31 11:49:20;;;;;;;2.65;2.00;;;;;25.90;101116.00;;;;5070109;28;20270;-79
2022/05/31 11:52:11;;;;;;;2.42;2.10;;;;;25.90;101115.00;;;;5064537;28;20199;-79
2022/05/31 11:58:14;;;;;;;2.60;1.90;;;;;25.80;101124.00;;;;5063509;28;20696;-79
2022/05/31 12:00:50;;;;;;;2.92;2.30;;;;;25.80;101123.00;;;;5054737;28;20242;-79
2022/05/31 12:03:24;;;;;;;3.05;2.22;;;;;25.70;101120.00;;;;5063797;28;20241;-79
2022/05/31 12:05:58;;;;;;;3.15;2.40;;;;;25.70;101119.00;;;;5050875;28;20225;-79
2022/05/31 12:08:30;;;;;;;3.90;1.90;;;;;25.60;101122.00;;;;5070170;28;20203;-79
2022/05/31 12:11:09;;;;;;;4.75;1.75;;;;;25.60;101113.00;;;;5064595;28;20253;-80
2022/05/31 12:13:41;;;;;;;2.63;1.73;;;;;25.60;101110.00;;;;5067537;28;20194;-79
2022/05/31 12:16:10;;;;;;;3.22;2.92;;;;;25.50;101111.00;;;;5066554;28;20207;-79
2022/05/31 12:18:42;;;;;;;2.75;2.15;;;;;25.50;101103.00;;;;5061950;28;20207;-79
2022/05/31 12:21:16;;;;;;;3.65;2.10;;;;;25.50;101105.00;;;;5062559;28;20191;-79
2022/05/31 12:23:51;;;;;;;3.85;2.70;;;;;25.40;101108.00;;;;5063677;28;20233;-79
2022/05/31 12:26:25;;;;;;;2.88;2.25;;;;;25.40;101106.00;;;;5062485;28;20673;-79
2022/05/31 12:29:00;;;;;;;4.07;2.53;;;;;25.30;101114.00;;;;5059570;28;20213;-80
2022/05/31 12:31:31;;;;;;;2.38;2.13;;;;;25.30;101104.00;;;;5049945;28;20397;-79
2022/05/31 12:34:27;;;;;;;3.53;2.30;;;;;25.20;101094.00;;;;5057578;28;20326;-79
2022/05/31 12:37:01;;;;;;;3.40;2.20;;;;;25.30;101091.00;;;;5056908;28;20203;-78
2022/05/31 12:39:32;;;;;;;3.85;2.25;;;;;25.40;101084.00;;;;5055601;28;20208;-78
2022/05/31 12:42:17;;;;;;;3.97;2.63;;;;;25.40;101087.00;;;;5051050;28;20250;-79
2022/05/31 12:44:46;;;;;;;3.13;2.20;;;;;25.50;101083.00;;;;5054740;28;20195;-78
2022/05/31 12:47:19;;;;;;;3.20;2.13;;;;;25.50;101085.00;;;;5062891;28;20202;-78
2022/05/31 12:49:53;;;;;;;3.38;2.42;;;;;25.50;101082.00;;;;5063785;28;20199;-77
2022/05/31 12:52:35;;;;;;;3.13;2.00;;;;;25.60;101090.00;;;;5060838;28;20199;-78
2022/05/31 12:55:04;;;;;;;2.17;1.98;;;;;25.60;101080.00;;;;5071687;28;20205;-79